Time;durP1;ratioP1;P1;durP2;ratioP2;P2;SDS_P1;SDS_P2;PMS_P1;PMS_P2;Temp;Humidity;BMP_temperature;BMP_pressure;BME280_temperature;BME280_humidity;BME280_pressure;Samples;Min_cycle;Max_cycle;Signal;HPM_P1;HPM_P2
2022/07/02 00:00:42;;;;;;;4.65;2.58;;;15.40;99.90;;;;;;5112081;28;20043;-73
2022/07/02 00:03:10;;;;;;;3.88;1.90;;;15.40;99.90;;;;;;5112813;28;20043;-72
2022/07/02 00:05:44;;;;;;;7.25;2.30;;;15.40;99.90;;;;;;5111666;28;20039;-73
2022/07/02 00:08:12;;;;;;;3.95;2.55;;;15.40;99.90;;;;;;5113051;28;20492;-73
2022/07/02 00:10:38;;;;;;;5.72;2.38;;;15.30;99.90;;;;;;5112817;28;20392;-72
2022/07/02 00:13:05;;;;;;;4.07;2.35;;;15.40;99.90;;;;;;5112761;28;20036;-73
2022/07/02 00:15:31;;;;;;;2.63;2.35;;;15.40;99.90;;;;;;5112827;28;20035;-73
2022/07/02 00:17:56;;;;;;;6.57;2.60;;;15.30;99.90;;;;;;5111755;28;20050;-73
2022/07/02 00:20:23;;;;;;;3.17;2.40;;;15.30;99.90;;;;;;5112764;28;20164;-72
2022/07/02 00:22:52;;;;;;;5.47;2.58;;;15.30;99.90;;;;;;5110955;28;20169;-73
2022/07/02 00:25:17;;;;;;;4.32;2.42;;;15.20;99.90;;;;;;5112550;27;20114;-73
2022/07/02 00:27:43;;;;;;;3.92;2.40;;;15.30;99.90;;;;;;5111010;28;20122;-73
2022/07/02 00:30:11;;;;;;;4.47;2.03;;;15.20;99.90;;;;;;5094121;28;20200;-73
2022/07/02 00:32:37;;;;;;;4.85;2.80;;;15.20;99.90;;;;;;5110850;28;20403;-73
2022/07/02 00:35:09;;;;;;;4.82;2.90;;;15.20;99.90;;;;;;5110171;28;20046;-73
2022/07/02 00:37:37;;;;;;;7.70;2.50;;;15.10;99.90;;;;;;5111878;28;20035;-73
2022/07/02 00:40:04;;;;;;;6.30;2.83;;;15.20;99.90;;;;;;5111129;28;20083;-73
2022/07/02 00:42:31;;;;;;;5.15;2.72;;;15.20;99.90;;;;;;5110587;28;20039;-73
2022/07/02 00:44:57;;;;;;;4.38;2.58;;;15.10;99.90;;;;;;5110711;28;20043;-73
2022/07/02 00:47:25;;;;;;;3.58;2.20;;;15.10;99.90;;;;;;5093758;28;20515;-73
2022/07/02 00:49:50;;;;;;;4.93;2.45;;;15.10;99.90;;;;;;5110937;28;20380;-73
2022/07/02 00:52:16;;;;;;;7.63;2.58;;;15.10;99.90;;;;;;5110464;28;20034;-73
2022/07/02 00:54:43;;;;;;;5.78;2.65;;;15.10;99.90;;;;;;5110532;28;20038;-73
2022/07/02 00:57:10;;;;;;;4.82;2.55;;;15.00;99.90;;;;;;5112340;28;20506;-72
2022/07/02 00:59:36;;;;;;;5.30;2.63;;;15.00;99.90;;;;;;5111403;28;20123;-73
2022/07/02 01:02:04;;;;;;;4.88;2.63;;;14.90;99.90;;;;;;5111687;28;20039;-72
2022/07/02 01:04:32;;;;;;;6.20;3.00;;;14.90;99.90;;;;;;5111683;28;20056;-73
2022/07/02 01:07:03;;;;;;;4.05;2.72;;;14.90;99.90;;;;;;5111904;27;20043;-73
2022/07/02 01:12:26;;;;;;;4.45;2.75;;;14.90;99.90;;;;;;5109874;28;20052;-73
2022/07/02 01:14:53;;;;;;;7.90;2.85;;;14.80;99.90;;;;;;5111537;28;20031;-73
2022/07/02 01:17:19;;;;;;;3.55;2.63;;;14.80;99.90;;;;;;5111776;27;20118;-72
2022/07/02 01:19:45;;;;;;;3.92;2.53;;;14.80;99.90;;;;;;5110237;28;20059;-73
2022/07/02 01:22:19;;;;;;;7.57;3.05;;;14.70;99.90;;;;;;5110188;28;20043;-73
2022/07/02 01:24:47;;;;;;;5.50;2.78;;;14.70;99.90;;;;;;5111487;28;20043;-72
2022/07/02 01:27:14;;;;;;;3.47;2.90;;;14.70;99.90;;;;;;5110006;28;20135;-72
2022/07/02 01:29:39;;;;;;;8.65;3.33;;;14.70;99.90;;;;;;5111720;28;20453;-73
2022/07/02 01:32:06;;;;;;;5.60;3.10;;;14.70;99.90;;;;;;5111328;28;20051;-72
2022/07/02 01:34:37;;;;;;;6.65;3.22;;;14.70;99.90;;;;;;5111061;28;20514;-73
2022/07/02 01:37:06;;;;;;;6.22;3.20;;;14.70;99.90;;;;;;5111412;28;20050;-73
2022/07/02 01:39:31;;;;;;;6.55;3.50;;;14.60;99.90;;;;;;5111109;28;20400;-72
2022/07/02 01:41:57;;;;;;;4.03;3.25;;;14.60;99.90;;;;;;5093102;28;20040;-73
2022/07/02 01:44:23;;;;;;;5.25;2.95;;;14.60;99.90;;;;;;5109518;28;20065;-73
2022/07/02 01:46:48;;;;;;;4.57;3.08;;;14.60;99.90;;;;;;5092760;28;20032;-73
2022/07/02 01:49:14;;;;;;;5.90;2.92;;;14.60;99.90;;;;;;5109805;28;20038;-73
2022/07/02 01:51:40;;;;;;;6.15;3.15;;;14.60;99.90;;;;;;5110623;28;20051;-72
2022/07/02 01:54:07;;;;;;;7.45;3.28;;;14.50;99.90;;;;;;5110809;28;20515;-72
2022/07/02 01:56:33;;;;;;;7.45;3.45;;;14.50;99.90;;;;;;5111020;28;20054;-72
2022/07/02 01:58:59;;;;;;;6.70;3.30;;;14.40;99.90;;;;;;5109511;28;20483;-72
2022/07/02 02:01:24;;;;;;;7.35;3.45;;;14.40;99.90;;;;;;5110883;28;20165;-73
2022/07/02 02:03:50;;;;;;;6.10;3.40;;;14.50;99.90;;;;;;5110733;28;20055;-72
2022/07/02 02:06:15;;;;;;;5.95;3.88;;;14.50;99.90;;;;;;5109976;28;20039;-73
2022/07/02 02:08:41;;;;;;;9.73;3.85;;;14.50;99.90;;;;;;5112231;28;20042;-73
2022/07/02 02:11:06;;;;;;;7.85;4.13;;;14.50;99.90;;;;;;5110631;28;20191;-72
2022/07/02 02:13:32;;;;;;;4.28;3.60;;;14.50;99.90;;;;;;5109211;28;20491;-73
2022/07/02 02:15:58;;;;;;;6.03;4.68;;;14.40;99.90;;;;;;5110771;28;20419;-73
2022/07/02 02:18:23;;;;;;;7.35;5.05;;;14.40;99.90;;;;;;5092340;28;20120;-72
2022/07/02 02:20:49;;;;;;;10.27;4.35;;;14.30;99.90;;;;;;5109136;28;20625;-73
2022/07/02 02:23:14;;;;;;;7.35;4.85;;;14.40;99.90;;;;;;5109004;28;20043;-73
2022/07/02 02:25:40;;;;;;;5.05;4.55;;;14.40;99.90;;;;;;5110535;28;20043;-73
2022/07/02 02:28:05;;;;;;;6.50;4.78;;;14.30;99.90;;;;;;5109258;28;20077;-73
2022/07/02 02:30:31;;;;;;;7.25;4.90;;;14.30;99.90;;;;;;5109228;28;20040;-73
2022/07/02 02:32:56;;;;;;;6.72;5.10;;;14.30;99.90;;;;;;5110342;28;20502;-72
2022/07/02 02:35:23;;;;;;;9.00;5.53;;;14.30;99.90;;;;;;5110775;28;20057;-73
2022/07/02 02:37:48;;;;;;;7.88;5.25;;;14.30;99.90;;;;;;5092540;28;20051;-73
2022/07/02 02:40:14;;;;;;;7.60;5.32;;;14.40;99.90;;;;;;5109247;28;20500;-73
2022/07/02 02:42:39;;;;;;;8.73;5.65;;;14.30;99.90;;;;;;5108802;28;20050;-73
2022/07/02 02:45:05;;;;;;;8.15;5.63;;;14.40;99.90;;;;;;5109159;28;20052;-72
2022/07/02 02:47:31;;;;;;;8.43;5.22;;;14.30;99.90;;;;;;5109001;28;20553;-72
2022/07/02 02:49:56;;;;;;;6.88;5.80;;;14.30;99.90;;;;;;5109119;28;20040;-73
2022/07/02 02:52:22;;;;;;;11.65;5.15;;;14.30;99.90;;;;;;5108543;28;20059;-73
2022/07/02 02:54:47;;;;;;;8.75;5.53;;;14.30;99.90;;;;;;5109403;28;20064;-73
2022/07/02 02:57:13;;;;;;;8.77;5.50;;;14.30;99.90;;;;;;5110575;28;20043;-72
2022/07/02 02:59:39;;;;;;;8.95;5.38;;;14.30;99.90;;;;;;5111235;28;20625;-72
2022/07/02 03:02:05;;;;;;;7.75;5.45;;;14.30;99.90;;;;;;5095853;28;20073;-73
2022/07/02 03:04:31;;;;;;;5.88;4.82;;;14.30;99.90;;;;;;5112547;28;20047;-73
2022/07/02 03:06:56;;;;;;;11.10;5.57;;;14.20;99.90;;;;;;5113014;28;20100;-72
2022/07/02 03:09:22;;;;;;;9.05;5.40;;;14.20;99.90;;;;;;5112968;28;20028;-73
2022/07/02 03:11:48;;;;;;;6.40;5.38;;;14.20;99.90;;;;;;5109989;28;20463;-73
2022/07/02 03:14:13;;;;;;;7.97;6.22;;;14.20;99.90;;;;;;5111493;28;20150;-73
2022/07/02 03:16:39;;;;;;;7.18;5.55;;;14.20;99.90;;;;;;5115791;28;20046;-72
2022/07/02 03:19:04;;;;;;;9.57;4.88;;;14.20;99.90;;;;;;5115778;28;20043;-72
2022/07/02 03:21:30;;;;;;;6.50;5.38;;;14.10;99.90;;;;;;5112231;28;20063;-72
2022/07/02 03:23:55;;;;;;;7.32;5.50;;;14.20;99.90;;;;;;5113357;28;20051;-72
2022/07/02 03:26:21;;;;;;;7.47;5.72;;;14.30;99.90;;;;;;5111519;28;20044;-72
2022/07/02 03:28:46;;;;;;;11.68;5.90;;;14.30;99.90;;;;;;5113512;28;20072;-72
2022/07/02 03:31:12;;;;;;;8.60;5.85;;;14.30;99.90;;;;;;5113684;28;20422;-72
2022/07/02 03:33:38;;;;;;;10.90;5.65;;;14.20;99.90;;;;;;5112118;28;20062;-72
2022/07/02 03:36:04;;;;;;;8.90;5.47;;;14.20;99.90;;;;;;5112254;28;20043;-72
2022/07/02 03:38:30;;;;;;;9.07;5.60;;;14.30;99.90;;;;;;5112408;28;20046;-73
2022/07/02 03:40:55;;;;;;;10.45;5.60;;;14.30;99.90;;;;;;5112565;28;20055;-72
2022/07/02 03:43:21;;;;;;;10.27;5.82;;;14.20;99.90;;;;;;5113343;28;20035;-73
2022/07/02 03:45:46;;;;;;;12.02;6.57;;;14.30;99.90;;;;;;5113583;28;20131;-73
2022/07/02 03:48:12;;;;;;;12.18;6.50;;;14.30;99.90;;;;;;5112197;28;20040;-73
2022/07/02 03:50:40;;;;;;;11.52;5.45;;;14.30;99.90;;;;;;5113776;28;20414;-73
2022/07/02 03:53:06;;;;;;;9.52;6.00;;;14.40;99.90;;;;;;5111790;28;20051;-73
2022/07/02 03:55:32;;;;;;;11.55;5.53;;;14.40;99.90;;;;;;5113400;28;20035;-73
2022/07/02 03:57:57;;;;;;;8.77;6.30;;;14.60;99.90;;;;;;5112214;28;20066;-73
2022/07/02 04:00:23;;;;;;;6.55;5.85;;;14.50;99.90;;;;;;5111805;28;20035;-73
2022/07/02 04:02:48;;;;;;;10.60;6.20;;;14.60;99.90;;;;;;5112872;27;20032;-73
2022/07/02 04:05:14;;;;;;;9.35;6.05;;;14.60;99.90;;;;;;5111797;28;20122;-73
2022/07/02 04:07:40;;;;;;;11.35;6.60;;;14.70;99.90;;;;;;5113210;28;20039;-73
2022/07/02 04:10:07;;;;;;;9.73;5.47;;;14.80;99.90;;;;;;5112785;28;20513;-73
2022/07/02 04:12:33;;;;;;;8.65;5.90;;;14.80;99.90;;;;;;5111548;28;20194;-73
2022/07/02 04:14:58;;;;;;;7.63;6.30;;;15.00;99.90;;;;;;5111684;28;20226;-73
2022/07/02 04:17:24;;;;;;;8.73;6.10;;;15.00;99.90;;;;;;5111870;28;20044;-73
2022/07/02 04:19:50;;;;;;;11.20;6.22;;;15.10;99.90;;;;;;5094458;28;20099;-73
2022/07/02 04:22:15;;;;;;;10.75;6.40;;;15.20;99.90;;;;;;5111698;28;20052;-73
2022/07/02 04:24:41;;;;;;;13.07;6.28;;;15.20;99.90;;;;;;5114113;28;20050;-73
2022/07/02 04:27:06;;;;;;;12.00;5.63;;;15.40;99.90;;;;;;5115549;28;20036;-73
2022/07/02 04:29:32;;;;;;;12.63;5.95;;;15.30;99.90;;;;;;5111624;28;20415;-73
2022/07/02 04:31:58;;;;;;;13.73;5.70;;;15.40;99.90;;;;;;5111105;28;20043;-73
2022/07/02 04:34:23;;;;;;;11.73;6.30;;;15.50;99.90;;;;;;5110980;28;20123;-73
2022/07/02 04:36:49;;;;;;;11.38;6.38;;;15.50;99.90;;;;;;5111165;28;20474;-71
2022/07/02 04:39:14;;;;;;;10.15;6.18;;;15.60;99.90;;;;;;5111727;28;20116;-71
2022/07/02 04:41:40;;;;;;;6.68;5.78;;;15.60;99.90;;;;;;5111368;28;20074;-72
2022/07/02 04:44:06;;;;;;;7.80;5.88;;;15.70;99.90;;;;;;5112447;28;20479;-71
2022/07/02 04:46:31;;;;;;;11.90;5.40;;;15.90;99.90;;;;;;5111629;28;20035;-71
2022/07/02 04:48:57;;;;;;;9.10;5.65;;;16.00;99.90;;;;;;5111187;28;20042;-71
2022/07/02 04:51:22;;;;;;;10.00;5.75;;;16.10;99.90;;;;;;5112202;28;20406;-72
2022/07/02 04:53:48;;;;;;;9.05;6.75;;;16.10;99.90;;;;;;5111216;28;20028;-71
2022/07/02 04:56:14;;;;;;;9.73;6.13;;;16.20;99.90;;;;;;5112689;28;20039;-71
2022/07/02 04:58:39;;;;;;;8.55;5.40;;;16.30;99.90;;;;;;5111366;28;20051;-72
2022/07/02 05:01:05;;;;;;;11.02;5.57;;;16.40;99.90;;;;;;5111086;28;20044;-72
2022/07/02 05:03:31;;;;;;;10.85;5.63;;;16.50;99.90;;;;;;5112087;28;20237;-72
2022/07/02 05:05:58;;;;;;;8.90;5.45;;;16.50;99.90;;;;;;5110978;28;20139;-72
2022/07/02 05:08:26;;;;;;;8.82;5.15;;;16.60;99.90;;;;;;5112267;28;20035;-72
2022/07/02 05:10:55;;;;;;;7.22;5.22;;;16.70;99.90;;;;;;5110880;28;20038;-72
2022/07/02 05:13:22;;;;;;;8.32;5.43;;;16.80;99.90;;;;;;5111843;28;20442;-72
2022/07/02 05:15:49;;;;;;;12.75;5.53;;;16.80;99.90;;;;;;5111026;28;20515;-72
2022/07/02 05:18:15;;;;;;;10.35;5.55;;;16.80;99.90;;;;;;5110309;28;20126;-72
2022/07/02 05:20:41;;;;;;;9.13;5.65;;;16.90;99.90;;;;;;5110420;28;20130;-72
2022/07/02 05:23:07;;;;;;;13.07;5.72;;;16.90;99.90;;;;;;5109815;28;20531;-72
2022/07/02 05:25:33;;;;;;;7.45;5.65;;;17.00;99.90;;;;;;5110671;28;20047;-72
2022/07/02 05:27:59;;;;;;;7.28;5.60;;;17.20;99.90;;;;;;5110491;28;20049;-72
2022/07/02 05:30:24;;;;;;;16.10;5.93;;;17.30;99.90;;;;;;5110563;28;20478;-72
2022/07/02 05:32:50;;;;;;;11.40;6.00;;;17.50;99.90;;;;;;5109833;28;20146;-72
2022/07/02 05:35:15;;;;;;;8.63;5.57;;;17.40;99.90;;;;;;5113386;28;20135;-72
2022/07/02 05:37:41;;;;;;;9.98;5.30;;;17.60;99.90;;;;;;5113845;28;20032;-72
2022/07/02 05:40:07;;;;;;;7.80;5.20;;;17.60;99.90;;;;;;5111776;28;20066;-72
2022/07/02 05:42:33;;;;;;;12.70;5.22;;;17.70;99.90;;;;;;5111366;28;20039;-72
2022/07/02 05:44:59;;;;;;;8.18;4.60;;;17.70;99.90;;;;;;5109909;28;20515;-72
2022/07/02 05:47:24;;;;;;;7.75;5.07;;;17.70;99.90;;;;;;5109842;28;20202;-72
2022/07/02 05:49:50;;;;;;;8.57;4.65;;;17.70;99.90;;;;;;5111270;28;20044;-72
2022/07/02 05:52:17;;;;;;;8.55;4.38;;;17.80;99.90;;;;;;5109823;28;20048;-72
2022/07/02 05:54:43;;;;;;;10.15;4.55;;;17.80;99.90;;;;;;5111749;28;20036;-73
2022/07/02 05:57:09;;;;;;;8.40;4.32;;;17.90;99.90;;;;;;5110484;28;20560;-72
2022/07/02 05:59:36;;;;;;;7.50;4.10;;;18.00;99.90;;;;;;5110392;28;20043;-72
2022/07/02 06:02:04;;;;;;;9.68;3.65;;;18.00;99.90;;;;;;5109747;28;20063;-72
2022/07/02 06:04:31;;;;;;;6.22;3.47;;;18.00;99.90;;;;;;5110235;28;20040;-72
2022/07/02 06:09:41;;;;;;;7.43;3.13;;;18.30;99.90;;;;;;5111372;28;20487;-72
2022/07/02 06:12:07;;;;;;;9.48;3.38;;;18.40;99.90;;;;;;5111413;28;20119;-73
2022/07/02 06:14:33;;;;;;;6.85;2.97;;;18.50;99.90;;;;;;5111281;28;20036;-72
2022/07/02 06:16:59;;;;;;;6.70;2.95;;;18.70;99.90;;;;;;5111217;28;20055;-73
2022/07/02 06:19:25;;;;;;;5.80;2.95;;;18.60;99.90;;;;;;5111061;28;20049;-72
2022/07/02 06:21:50;;;;;;;9.25;3.13;;;18.60;99.90;;;;;;5110319;28;20114;-72
2022/07/02 06:24:16;;;;;;;5.82;2.88;;;18.70;99.90;;;;;;5111217;28;20039;-72
2022/07/02 06:26:41;;;;;;;7.30;2.80;;;18.70;99.90;;;;;;5110397;28;20044;-73
2022/07/02 06:29:07;;;;;;;8.55;2.92;;;18.70;99.90;;;;;;5110937;28;20036;-72
2022/07/02 06:31:33;;;;;;;5.55;3.08;;;18.80;99.90;;;;;;5109554;28;20483;-72
2022/07/02 06:33:58;;;;;;;8.35;2.67;;;18.80;99.90;;;;;;5092900;28;20175;-72
2022/07/02 06:36:24;;;;;;;9.15;2.88;;;19.00;99.90;;;;;;5114895;28;20475;-72
2022/07/02 06:38:51;;;;;;;6.95;3.08;;;19.10;99.90;;;;;;5113350;28;20047;-72
2022/07/02 06:44:01;;;;;;;5.13;2.38;;;19.20;99.90;;;;;;5095277;28;20551;-72
2022/07/02 06:46:27;;;;;;;5.75;1.90;;;19.30;99.90;;;;;;5095114;28;20124;-72
2022/07/02 06:48:53;;;;;;;4.75;2.20;;;19.30;99.90;;;;;;5092920;28;20407;-72
2022/07/02 06:51:18;;;;;;;7.85;1.75;;;19.40;99.90;;;;;;5092680;28;20044;-72
2022/07/02 06:53:44;;;;;;;3.88;1.63;;;19.50;99.90;;;;;;5093019;28;20051;-72
2022/07/02 06:56:09;;;;;;;2.40;1.25;;;19.60;99.90;;;;;;5094110;28;20032;-72
2022/07/02 06:58:35;;;;;;;4.07;1.20;;;19.70;99.90;;;;;;5093375;28;20050;-72
2022/07/02 07:01:00;;;;;;;2.38;1.10;;;19.70;99.90;;;;;;5094205;28;20044;-72
2022/07/02 07:03:26;;;;;;;6.97;1.50;;;19.80;99.90;;;;;;5092452;28;20036;-72
2022/07/02 07:05:52;;;;;;;2.25;0.95;;;19.80;99.90;;;;;;5094073;28;20061;-72
2022/07/02 07:08:18;;;;;;;4.03;0.80;;;19.90;99.90;;;;;;5093704;28;20125;-72
2022/07/02 07:10:44;;;;;;;3.67;1.00;;;19.80;99.90;;;;;;5094082;28;20115;-73
2022/07/02 07:13:10;;;;;;;2.53;0.80;;;19.80;99.90;;;;;;5093715;28;20085;-72
2022/07/02 07:15:35;;;;;;;4.32;1.10;;;20.00;99.90;;;;;;5092652;28;20051;-72
2022/07/02 07:18:01;;;;;;;2.47;0.85;;;20.10;99.90;;;;;;5092416;28;20507;-72
2022/07/02 07:20:29;;;;;;;1.85;0.90;;;20.10;99.90;;;;;;5093628;28;20097;-72
2022/07/02 07:22:55;;;;;;;2.75;0.90;;;20.10;99.90;;;;;;5093091;28;20043;-72
2022/07/02 07:25:21;;;;;;;2.13;0.68;;;20.30;99.90;;;;;;5093763;28;20439;-72
2022/07/02 07:27:48;;;;;;;2.65;0.80;;;20.30;99.90;;;;;;5093410;28;20036;-72
2022/07/02 07:30:14;;;;;;;2.53;1.00;;;20.30;99.90;;;;;;5075700;28;20357;-73
2022/07/02 07:32:39;;;;;;;3.38;1.00;;;20.30;99.90;;;;;;5092894;28;20038;-72
2022/07/02 07:35:05;;;;;;;2.28;0.93;;;20.40;99.90;;;;;;5091721;28;20126;-71
2022/07/02 07:37:31;;;;;;;1.42;0.70;;;20.40;99.90;;;;;;5091665;28;20052;-72
2022/07/02 07:39:57;;;;;;;4.38;0.82;;;20.40;99.90;;;;;;5091540;28;20066;-72
2022/07/02 07:42:22;;;;;;;2.58;0.80;;;20.50;99.90;;;;;;5091443;28;20357;-72
2022/07/02 07:44:51;;;;;;;3.50;0.93;;;20.50;99.90;;;;;;5092337;28;20124;-72
2022/07/02 07:47:16;;;;;;;2.65;1.10;;;20.60;99.90;;;;;;5092843;28;20073;-72
2022/07/02 07:49:42;;;;;;;3.05;1.05;;;20.70;99.90;;;;;;5091710;28;20181;-73
2022/07/02 07:52:08;;;;;;;3.10;0.95;;;20.80;99.90;;;;;;5095696;28;20036;-70
2022/07/02 07:54:33;;;;;;;3.70;0.77;;;20.80;99.90;;;;;;5100497;28;20064;-70
2022/07/02 07:56:59;;;;;;;1.92;0.90;;;20.80;99.90;;;;;;5098430;28;20464;-71
2022/07/02 07:59:25;;;;;;;3.90;0.80;;;21.00;99.90;;;;;;5078579;28;20075;-71
2022/07/02 08:01:50;;;;;;;1.17;0.70;;;20.90;99.90;;;;;;5096226;28;20051;-71
2022/07/02 08:04:16;;;;;;;7.22;1.00;;;20.90;99.90;;;;;;5097940;28;20040;-71
2022/07/02 08:06:42;;;;;;;1.83;0.98;;;21.00;99.90;;;;;;5097613;28;20097;-71
2022/07/02 08:09:08;;;;;;;2.50;0.68;;;21.10;99.90;;;;;;5098984;28;20092;-71
2022/07/02 08:11:33;;;;;;;3.60;0.82;;;21.10;99.90;;;;;;5097161;28;20040;-71
2022/07/02 08:13:59;;;;;;;1.95;0.77;;;21.10;99.90;;;;;;5096898;28;20046;-71
2022/07/02 08:16:25;;;;;;;1.02;0.60;;;21.10;99.90;;;;;;5098263;28;20050;-71
2022/07/02 08:18:50;;;;;;;2.70;0.75;;;21.00;99.90;;;;;;5098334;28;20044;-71
2022/07/02 08:21:16;;;;;;;1.85;0.70;;;21.10;99.90;;;;;;5097052;28;20487;-70
2022/07/02 08:23:42;;;;;;;1.38;0.57;;;21.10;99.90;;;;;;5096719;28;20043;-70
2022/07/02 08:26:08;;;;;;;0.95;0.40;;;21.20;99.90;;;;;;5098324;28;20036;-70
2022/07/02 08:28:33;;;;;;;2.17;0.47;;;21.20;99.90;;;;;;5098379;28;20076;-70
2022/07/02 08:30:59;;;;;;;1.95;0.50;;;21.20;99.90;;;;;;5098220;28;20065;-70
2022/07/02 08:33:25;;;;;;;1.30;0.50;;;21.40;99.90;;;;;;5096302;28;20048;-70
2022/07/02 08:35:50;;;;;;;2.42;0.68;;;21.50;99.90;;;;;;5096166;28;20575;-70
2022/07/02 08:38:16;;;;;;;2.13;0.80;;;21.50;99.80;;;;;;5097234;28;20044;-70
2022/07/02 08:40:43;;;;;;;2.05;0.50;;;21.70;99.90;;;;;;5097794;28;20115;-70
2022/07/02 08:43:12;;;;;;;1.55;0.65;;;21.60;99.60;;;;;;5097174;28;20040;-70
2022/07/02 08:45:39;;;;;;;3.38;0.70;;;21.70;99.10;;;;;;5096241;28;20036;-70
2022/07/02 08:48:07;;;;;;;2.53;0.68;;;21.80;98.80;;;;;;5096049;28;20048;-70
2022/07/02 08:50:34;;;;;;;3.55;0.63;;;21.70;99.20;;;;;;5097206;28;20116;-70
2022/07/02 08:53:00;;;;;;;0.90;0.65;;;21.80;98.40;;;;;;5097221;28;20032;-70
2022/07/02 08:55:28;;;;;;;2.08;0.70;;;21.90;99.20;;;;;;5078965;28;20538;-70
2022/07/02 08:57:54;;;;;;;3.10;0.35;;;22.00;99.00;;;;;;5095453;28;20047;-70
2022/07/02 09:00:22;;;;;;;4.93;0.70;;;22.00;98.80;;;;;;5096276;28;20036;-70
2022/07/02 09:02:50;;;;;;;1.33;0.55;;;21.90;98.30;;;;;;5099369;28;20043;-70
2022/07/02 09:05:17;;;;;;;0.80;0.45;;;21.90;99.10;;;;;;5098160;28;20510;-70
2022/07/02 09:07:45;;;;;;;1.95;0.60;;;22.10;98.90;;;;;;5096617;28;20078;-70
2022/07/02 09:10:11;;;;;;;3.70;0.70;;;22.10;98.30;;;;;;5096388;28;20040;-70
2022/07/02 09:12:38;;;;;;;1.58;0.55;;;22.00;99.00;;;;;;5096188;28;20660;-70
2022/07/02 09:15:04;;;;;;;3.47;0.65;;;22.10;98.60;;;;;;5097579;28;20056;-70
2022/07/02 09:17:31;;;;;;;2.28;0.60;;;22.00;98.90;;;;;;5097274;28;20040;-70
2022/07/02 09:19:57;;;;;;;4.25;0.80;;;22.10;98.70;;;;;;5095545;28;20115;-70
2022/07/02 09:22:31;;;;;;;1.85;0.70;;;22.10;98.80;;;;;;5095934;28;20063;-70
2022/07/02 09:25:09;;;;;;;4.13;1.08;;;22.10;98.20;;;;;;5095180;28;20385;-70
2022/07/02 09:27:34;;;;;;;2.92;0.63;;;22.10;98.40;;;;;;5096601;28;20086;-70
2022/07/02 09:30:01;;;;;;;1.55;0.57;;;22.10;98.80;;;;;;5097382;28;20044;-70
2022/07/02 09:32:26;;;;;;;2.67;0.80;;;22.40;99.10;;;;;;5078761;28;20132;-70
2022/07/02 09:34:53;;;;;;;2.42;0.80;;;22.40;99.00;;;;;;5078800;28;20488;-70
2022/07/02 09:37:21;;;;;;;3.20;0.90;;;22.40;99.10;;;;;;5094834;28;20199;-70
2022/07/02 09:39:48;;;;;;;3.47;0.60;;;22.50;99.00;;;;;;5094808;28;20048;-70
2022/07/02 09:42:32;;;;;;;4.40;0.95;;;22.50;98.70;;;;;;5094367;28;20044;-70
2022/07/02 09:45:01;;;;;;;1.90;0.70;;;22.50;98.30;;;;;;5094722;28;20044;-70
2022/07/02 09:47:48;;;;;;;1.88;0.77;;;22.40;98.50;;;;;;5094579;28;20048;-70
2022/07/02 09:50:16;;;;;;;2.05;0.80;;;22.50;98.30;;;;;;5096520;28;20151;-70
2022/07/02 09:52:50;;;;;;;2.65;0.88;;;22.30;98.70;;;;;;5092251;28;20403;-70
2022/07/02 09:55:27;;;;;;;5.43;0.77;;;22.50;98.70;;;;;;5102660;28;20046;-70
2022/07/02 09:57:55;;;;;;;5.70;0.80;;;22.60;98.60;;;;;;5112292;28;20036;-70
2022/07/02 10:00:23;;;;;;;2.17;0.70;;;22.70;97.90;;;;;;5116430;28;20377;-69
2022/07/02 10:02:51;;;;;;;1.48;0.65;;;22.50;98.40;;;;;;5115771;28;20071;-69
2022/07/02 10:05:33;;;;;;;4.57;1.00;;;22.40;98.50;;;;;;5099247;28;20050;-69
2022/07/02 10:08:01;;;;;;;3.75;0.70;;;22.30;98.90;;;;;;5114585;28;20088;-69
2022/07/02 10:10:38;;;;;;;2.22;0.80;;;22.20;98.00;;;;;;5115404;28;20042;-71
2022/07/02 10:13:07;;;;;;;1.40;0.90;;;22.20;98.00;;;;;;5098694;28;20119;-70
2022/07/02 10:15:36;;;;;;;4.00;0.88;;;22.20;98.30;;;;;;5116441;28;20035;-71
2022/07/02 10:18:03;;;;;;;4.00;0.95;;;22.40;98.80;;;;;;5115050;28;20050;-71
2022/07/02 10:20:29;;;;;;;47.42;6.55;;;22.20;97.10;;;;;;5114558;28;20047;-71
2022/07/02 10:22:59;;;;;;;3.28;1.00;;;22.20;97.10;;;;;;5114338;28;20044;-71
2022/07/02 10:25:24;;;;;;;3.58;0.80;;;22.00;97.20;;;;;;5114489;28;20119;-71
2022/07/02 10:27:51;;;;;;;5.70;1.08;;;22.10;97.80;;;;;;5114567;28;20099;-71
2022/07/02 10:30:21;;;;;;;1.50;0.68;;;22.10;98.20;;;;;;5116105;28;20083;-71
2022/07/02 10:33:29;;;;;;;1.75;0.77;;;22.20;98.30;;;;;;5115192;28;20035;-70
2022/07/02 10:35:57;;;;;;;3.60;0.63;;;22.10;97.30;;;;;;5115881;28;20392;-70
2022/07/02 10:38:37;;;;;;;2.92;0.90;;;22.00;96.50;;;;;;5116232;28;20127;-70
2022/07/02 10:41:03;;;;;;;4.00;0.93;;;22.00;97.60;;;;;;5115730;28;20039;-70
2022/07/02 10:43:33;;;;;;;2.80;0.80;;;22.20;97.00;;;;;;5114918;28;20085;-71
2022/07/02 10:46:13;;;;;;;2.53;0.50;;;22.30;96.90;;;;;;5115558;28;20031;-71
2022/07/02 10:48:50;;;;;;;6.13;0.80;;;22.40;96.80;;;;;;5117665;28;20043;-71
2022/07/02 10:51:22;;;;;;;6.82;1.02;;;22.40;97.00;;;;;;5117821;28;20070;-71
2022/07/02 10:54:07;;;;;;;2.45;0.90;;;22.70;97.20;;;;;;5117853;28;20070;-71
2022/07/02 10:56:49;;;;;;;2.05;0.80;;;22.40;97.30;;;;;;5116874;28;20518;-70
2022/07/02 10:59:25;;;;;;;1.88;1.00;;;22.50;96.60;;;;;;5114092;28;20052;-68
2022/07/02 11:02:05;;;;;;;5.20;1.08;;;22.50;96.40;;;;;;5098518;28;20044;-69
2022/07/02 11:04:32;;;;;;;3.38;0.77;;;22.50;96.00;;;;;;5115302;28;20043;-70
2022/07/02 11:07:09;;;;;;;2.30;0.60;;;22.30;96.70;;;;;;5115010;28;20047;-70
2022/07/02 11:09:57;;;;;;;1.23;0.60;;;22.40;96.90;;;;;;5115297;28;20425;-70
2022/07/02 11:12:40;;;;;;;1.92;0.70;;;22.50;97.00;;;;;;5114850;28;20040;-71
2022/07/02 11:15:19;;;;;;;3.42;0.90;;;22.50;96.30;;;;;;5115955;28;20040;-70
2022/07/02 11:17:50;;;;;;;3.20;1.02;;;22.80;96.70;;;;;;5115130;28;20084;-70
2022/07/02 11:20:25;;;;;;;2.17;0.90;;;22.80;96.10;;;;;;5117556;28;20112;-70
2022/07/02 11:22:52;;;;;;;2.17;1.10;;;22.70;96.10;;;;;;5120889;27;20073;-70
2022/07/02 11:25:18;;;;;;;2.42;1.00;;;22.70;95.80;;;;;;5120220;28;20126;-70
2022/07/02 11:27:53;;;;;;;2.30;0.80;;;22.90;96.50;;;;;;5116714;28;20164;-69
2022/07/02 11:30:26;;;;;;;4.25;0.98;;;22.90;96.70;;;;;;5118399;28;20054;-71
2022/07/02 11:32:51;;;;;;;1.73;0.90;;;22.90;96.60;;;;;;5118238;27;20032;-71
2022/07/02 11:35:17;;;;;;;3.33;0.80;;;22.70;97.10;;;;;;5117318;28;20411;-71
2022/07/02 11:37:44;;;;;;;3.95;1.00;;;22.80;97.00;;;;;;5119120;28;20046;-71
2022/07/02 11:40:21;;;;;;;2.55;1.20;;;22.80;96.90;;;;;;5118915;28;20062;-71
2022/07/02 11:42:47;;;;;;;1.75;0.75;;;22.90;96.90;;;;;;5117208;28;20387;-71
2022/07/02 11:45:13;;;;;;;1.92;0.82;;;23.20;96.80;;;;;;5117161;28;20118;-71
2022/07/02 11:47:50;;;;;;;2.25;0.70;;;23.00;96.60;;;;;;5118063;27;20107;-71
2022/07/02 11:50:27;;;;;;;4.60;0.98;;;22.90;96.10;;;;;;5117289;28;20039;-72
2022/07/02 11:52:53;;;;;;;3.17;0.75;;;22.90;96.90;;;;;;5116713;28;20036;-71
2022/07/02 11:55:18;;;;;;;1.88;0.80;;;23.00;97.30;;;;;;5118897;28;20035;-71
2022/07/02 11:57:44;;;;;;;2.35;0.80;;;23.10;97.40;;;;;;5117798;28;20352;-71
2022/07/02 12:00:11;;;;;;;2.15;0.90;;;23.10;97.30;;;;;;5117022;28;20035;-71
2022/07/02 12:02:40;;;;;;;6.20;1.08;;;22.80;97.50;;;;;;5116090;28;20040;-71
2022/07/02 12:05:19;;;;;;;4.85;1.17;;;22.80;97.40;;;;;;5116460;28;20043;-71
2022/07/02 12:07:46;;;;;;;2.72;1.27;;;22.70;97.80;;;;;;5115746;28;20075;-71
2022/07/02 12:10:13;;;;;;;5.95;0.95;;;22.60;98.20;;;;;;5117779;28;20496;-71
2022/07/02 12:12:40;;;;;;;3.17;0.70;;;22.50;98.10;;;;;;5116539;28;20143;-70
2022/07/02 12:15:07;;;;;;;3.53;1.10;;;22.40;97.90;;;;;;5117634;28;20039;-71
2022/07/02 12:17:36;;;;;;;1.95;1.00;;;22.40;98.10;;;;;;5118059;28;20040;-71
2022/07/02 12:20:05;;;;;;;5.10;1.10;;;22.50;98.50;;;;;;5115662;28;20175;-70
2022/07/02 12:22:30;;;;;;;4.70;0.90;;;22.70;98.70;;;;;;5115723;28;20046;-71
2022/07/02 12:24:56;;;;;;;2.08;0.60;;;22.90;98.10;;;;;;5115872;28;20043;-70
2022/07/02 12:27:25;;;;;;;3.05;0.93;;;22.90;97.80;;;;;;5116421;28;20251;-70
2022/07/02 12:29:56;;;;;;;2.25;0.80;;;22.90;96.70;;;;;;5120215;28;20070;-71
2022/07/02 12:32:33;;;;;;;4.45;1.05;;;23.00;97.50;;;;;;5115531;28;20039;-71
2022/07/02 12:35:04;;;;;;;4.40;0.80;;;23.00;97.50;;;;;;5117112;28;20036;-71
2022/07/02 12:37:32;;;;;;;2.22;0.80;;;22.80;96.60;;;;;;5115736;28;20035;-71
2022/07/02 12:40:09;;;;;;;1.92;0.70;;;23.00;98.20;;;;;;5116036;28;20114;-71
2022/07/02 12:42:57;;;;;;;3.53;0.90;;;23.10;97.40;;;;;;5115249;28;20050;-71
2022/07/02 12:45:24;;;;;;;5.78;1.00;;;23.10;96.60;;;;;;5117064;28;20058;-71
2022/07/02 12:47:58;;;;;;;3.13;1.02;;;23.10;97.20;;;;;;5117321;28;20050;-71
2022/07/02 12:50:25;;;;;;;5.20;1.13;;;23.20;97.70;;;;;;5116026;28;20071;-71
2022/07/02 12:52:53;;;;;;;6.90;0.93;;;23.40;97.60;;;;;;5098257;28;20460;-71
2022/07/02 12:55:25;;;;;;;6.75;0.82;;;23.40;97.10;;;;;;5115421;28;20424;-71